createdAt,value
2017-05-30T00:02:46.514Z,100
2017-05-30T00:12:55.194Z,100
2017-05-30T00:23:03.854Z,97.3
2017-05-30T00:33:12.513Z,95.5
2017-05-30T00:43:21.274Z,94.5
2017-05-30T00:53:30.090Z,95
2017-05-30T01:03:38.987Z,99
2017-05-30T01:13:47.924Z,100
2017-05-30T01:23:56.888Z,100
2017-05-30T01:34:05.874Z,100
2017-05-30T01:44:14.849Z,100
2017-05-30T01:54:23.868Z,100
2017-05-30T02:04:32.869Z,100
2017-05-30T02:14:41.919Z,100
2017-05-30T02:24:51.017Z,100
2017-05-30T02:35:00.105Z,100
2017-05-30T02:45:09.194Z,100
2017-05-30T02:55:18.376Z,100
2017-05-30T03:05:27.373Z,100
2017-05-30T03:15:36.483Z,100
2017-05-30T03:25:45.690Z,100
2017-05-30T03:35:54.848Z,100
2017-05-30T03:46:03.919Z,100
2017-05-30T03:56:13.003Z,100
2017-05-30T04:06:22.094Z,100
2017-05-30T04:16:31.176Z,100
2017-05-30T04:26:40.143Z,100
2017-05-30T04:36:49.112Z,100
2017-05-30T04:46:57.984Z,100
2017-05-30T04:57:06.816Z,100
2017-05-30T05:07:15.615Z,100
2017-05-30T05:17:24.284Z,100
2017-05-30T05:27:32.816Z,100
2017-05-30T05:37:41.134Z,100
2017-05-30T05:47:49.347Z,100
2017-05-30T05:57:57.554Z,100
2017-05-30T06:08:05.781Z,100
2017-05-30T06:18:13.687Z,100
2017-05-30T06:28:21.727Z,100
2017-05-30T06:38:29.786Z,100
2017-05-30T06:48:37.706Z,97.1
2017-05-30T06:58:45.577Z,100
2017-05-30T07:08:53.642Z,100
2017-05-30T07:19:01.825Z,97.6
2017-05-30T07:29:09.983Z,93.7
2017-05-30T07:39:17.876Z,88.8
2017-05-30T07:49:25.547Z,90.3
2017-05-30T07:59:33.149Z,90.8
2017-05-30T08:09:40.745Z,81.3
2017-05-30T08:19:48.161Z,78.8
2017-05-30T08:29:55.564Z,78
2017-05-30T08:40:02.882Z,76.8
2017-05-30T08:50:10.143Z,77.2
2017-05-30T09:00:17.444Z,75.6
2017-05-30T09:10:24.628Z,73.1
2017-05-30T09:20:31.739Z,72.1
2017-05-30T09:30:38.855Z,76.2
2017-05-30T09:40:46.150Z,75.4
2017-05-30T09:50:53.526Z,73.2
2017-05-30T10:01:00.776Z,71.9
2017-05-30T10:11:07.872Z,70.7
2017-05-30T10:21:14.857Z,71.5
2017-05-30T10:31:21.918Z,70.3
2017-05-30T10:41:29.115Z,71.2
2017-05-30T10:51:36.247Z,66.2
2017-05-30T11:01:43.289Z,71.5
2017-05-30T11:11:50.473Z,70.1
2017-05-30T11:21:57.738Z,68
2017-05-30T11:32:05.201Z,71.6
2017-05-30T11:42:12.896Z,72.6
2017-05-30T11:52:20.627Z,71.9
2017-05-30T11:56:38.408Z,72
2017-05-30T11:57:08.480Z,72
2017-05-30T11:57:45.347Z,72.3
2017-05-30T12:07:53.324Z,92.1
2017-05-30T12:18:01.690Z,93.9
2017-05-30T12:28:09.949Z,91.2
2017-05-30T12:38:18.015Z,84.1
2017-05-30T12:48:25.887Z,80.7
2017-05-30T12:58:33.718Z,81
2017-05-30T13:08:41.866Z,95.1
2017-05-30T13:18:50.309Z,98.8
2017-05-30T13:28:58.685Z,92.4
2017-05-30T13:39:06.876Z,87.9
2017-05-30T13:49:14.849Z,79.5
2017-05-30T13:59:22.345Z,79.4
2017-05-30T14:09:29.796Z,75.1
2017-05-30T14:29:44.637Z,68.3
2017-05-30T14:39:52.334Z,72.2
2017-05-30T14:50:00.258Z,72.4
2017-05-30T15:00:08.138Z,72.1
2017-05-30T15:10:15.941Z,92.4
2017-05-30T15:20:23.876Z,100
2017-05-30T15:30:31.731Z,100
2017-05-30T15:40:39.386Z,91.3
2017-05-30T15:50:47.042Z,68.8
2017-05-30T16:00:55.027Z,70.2
2017-05-30T16:11:03.069Z,71.7
2017-05-30T16:21:10.923Z,70.6
2017-05-30T16:31:18.939Z,73.2
2017-05-30T16:41:27.040Z,80.6
2017-05-30T16:51:35.327Z,82.6
2017-05-30T17:01:43.351Z,77.2
2017-05-30T17:11:51.564Z,78.1
2017-05-30T17:21:59.779Z,76.6
2017-05-30T17:32:08.083Z,77.4
2017-05-30T17:42:16.348Z,81.1
2017-05-30T17:52:24.633Z,81.9
2017-05-30T18:02:32.903Z,81.8
2017-05-30T18:12:41.306Z,83.3
2017-05-30T18:22:49.776Z,82.7
2017-05-30T18:32:58.250Z,81.8
2017-05-30T18:43:06.864Z,78
2017-05-30T18:53:15.586Z,78.1
2017-05-30T19:03:24.327Z,78.4
2017-05-30T19:13:33.156Z,78.8
2017-05-30T19:23:41.992Z,74.7
2017-05-30T19:33:50.900Z,72.7
2017-05-30T19:43:59.851Z,70.4
2017-05-30T19:54:08.895Z,71.8
2017-05-30T20:04:18.046Z,71.6
2017-05-30T20:14:27.269Z,73.8
2017-05-30T20:24:36.578Z,74.2
2017-05-30T20:34:45.877Z,73.6
2017-05-30T20:44:55.181Z,72.5
2017-05-30T20:55:04.454Z,74.2
2017-05-30T21:05:13.715Z,77
2017-05-30T21:15:23.084Z,77.8
2017-05-30T21:25:32.352Z,78.5
2017-05-30T21:35:41.688Z,77.9
2017-05-30T21:45:51.002Z,78.6
2017-05-30T21:56:00.306Z,79.2
2017-05-30T22:06:09.724Z,80.8
2017-05-30T22:16:19.199Z,81.7
2017-05-30T22:26:28.662Z,83.5
2017-05-30T22:36:38.126Z,84.1
2017-05-30T22:46:47.584Z,85.4
2017-05-30T22:56:57.064Z,85.7
2017-05-30T23:07:06.531Z,86.8
2017-05-30T23:17:16.047Z,86.7
2017-05-30T23:27:25.534Z,86.7
2017-05-30T23:37:35.059Z,87
2017-05-30T23:47:44.567Z,87.4
2017-05-30T23:57:54.122Z,87.4
